createdAt,value
2018-06-14T00:00:54.290Z,6.83
2018-06-14T00:03:23.012Z,8.17
2018-06-14T00:05:55.449Z,5.10
2018-06-14T00:08:35.334Z,7.67
2018-06-14T00:11:03.697Z,5.90
2018-06-14T00:13:38.446Z,6.13
2018-06-14T00:16:06.935Z,6.67
2018-06-14T00:18:35.415Z,7.20
2018-06-14T00:21:03.877Z,5.23
2018-06-14T00:23:32.186Z,6.40
2018-06-14T00:26:02.602Z,5.67
2018-06-14T00:28:37.525Z,6.43
2018-06-14T00:31:06.175Z,5.77
2018-06-14T00:33:36.769Z,9.20
2018-06-14T00:36:15.437Z,7.70
2018-06-14T00:38:50.187Z,5.93
2018-06-14T00:41:18.458Z,6.03
2018-06-14T00:43:51.887Z,7.50
2018-06-14T00:46:24.393Z,6.77
2018-06-14T00:48:56.871Z,6.13
2018-06-14T00:51:29.246Z,5.57
2018-06-14T00:54:03.821Z,6.23
2018-06-14T00:56:44.769Z,6.03
2018-06-14T00:59:17.359Z,6.40
2018-06-14T01:01:59.291Z,7.43
2018-06-14T01:04:27.752Z,7.13
2018-06-14T01:06:55.996Z,6.97
2018-06-14T01:09:27.482Z,6.53
2018-06-14T01:11:55.713Z,4.90
2018-06-14T01:14:26.977Z,5.83
2018-06-14T01:16:58.427Z,4.60
2018-06-14T01:19:31.693Z,4.47
2018-06-14T01:22:00.109Z,4.70
2018-06-14T01:24:28.370Z,5.73
2018-06-14T01:26:56.982Z,4.83
2018-06-14T01:29:25.847Z,5.10
2018-06-14T01:31:57.094Z,6.60
2018-06-14T01:34:25.462Z,5.53
2018-06-14T01:36:53.764Z,5.57
2018-06-14T01:39:26.255Z,6.93
2018-06-14T01:41:57.254Z,5.23
2018-06-14T01:44:28.819Z,5.40
2018-06-14T01:47:01.181Z,4.60
2018-06-14T01:49:32.882Z,5.87
2018-06-14T01:52:15.720Z,6.03
2018-06-14T01:54:44.573Z,7.67
2018-06-14T01:57:26.672Z,11.93
2018-06-14T01:59:55.360Z,7.10
2018-06-14T02:02:33.726Z,7.47
2018-06-14T02:05:15.164Z,6.33
2018-06-14T02:07:47.641Z,8.27
2018-06-14T02:10:18.856Z,6.93
2018-06-14T02:12:47.354Z,5.77
2018-06-14T02:15:15.805Z,7.03
2018-06-14T02:17:44.119Z,8.20
2018-06-14T02:20:12.352Z,7.97
2018-06-14T02:22:43.586Z,6.70
2018-06-14T02:25:12.066Z,6.83
2018-06-14T02:27:40.320Z,7.37
2018-06-14T02:30:08.780Z,8.23
2018-06-14T02:32:37.014Z,6.83
2018-06-14T02:35:10.252Z,11.10
2018-06-14T02:37:43.405Z,9.47
2018-06-14T02:40:22.165Z,8.20
2018-06-14T02:42:59.034Z,6.57
2018-06-14T02:45:27.378Z,8.67
2018-06-14T02:47:55.644Z,8.77
2018-06-14T02:50:30.140Z,7.00
2018-06-14T02:53:01.506Z,6.03
2018-06-14T02:55:36.030Z,7.03
2018-06-14T02:58:20.489Z,10.03
2018-06-14T03:00:49.321Z,7.20
2018-06-14T03:03:17.858Z,10.90
2018-06-14T03:05:48.174Z,6.83
2018-06-14T03:08:16.371Z,10.23
2018-06-14T03:10:54.233Z,11.20
2018-06-14T03:13:23.091Z,10.53
2018-06-14T03:15:58.449Z,8.57
2018-06-14T03:18:32.925Z,9.17
2018-06-14T03:21:04.053Z,9.87
2018-06-14T03:23:43.120Z,8.30
2018-06-14T03:26:11.443Z,9.23
2018-06-14T03:28:51.298Z,9.90
2018-06-14T03:31:19.599Z,8.43
2018-06-14T03:33:47.843Z,12.17
2018-06-14T03:36:21.194Z,9.23
2018-06-14T03:38:56.743Z,8.90
2018-06-14T03:41:38.412Z,8.27
2018-06-14T03:44:06.665Z,11.90
2018-06-14T03:46:44.075Z,7.50
2018-06-14T03:49:14.990Z,14.03
2018-06-14T03:51:45.238Z,10.37
2018-06-14T03:54:13.493Z,10.67
2018-06-14T03:56:49.265Z,9.40
2018-06-14T03:59:17.494Z,10.63
2018-06-14T04:01:50.711Z,6.63
2018-06-14T04:04:21.786Z,9.37
2018-06-14T04:06:50.133Z,8.10
2018-06-14T04:09:18.439Z,7.93
2018-06-14T04:11:49.331Z,8.17
2018-06-14T04:14:17.654Z,8.37
2018-06-14T04:16:45.896Z,9.03
2018-06-14T04:19:16.866Z,8.27
2018-06-14T04:21:47.089Z,9.17
2018-06-14T04:24:15.362Z,7.37
2018-06-14T04:26:48.730Z,8.33
2018-06-14T04:29:22.141Z,7.43
2018-06-14T04:31:56.754Z,12.20
2018-06-14T04:34:25.070Z,7.80
2018-06-14T04:36:56.198Z,7.43
2018-06-14T04:39:32.118Z,6.33
2018-06-14T04:42:04.305Z,6.93
2018-06-14T04:44:37.898Z,7.77
2018-06-14T04:47:12.169Z,7.27
2018-06-14T04:49:43.286Z,7.10
2018-06-14T04:52:11.747Z,6.27
2018-06-14T04:54:40.109Z,7.73
2018-06-14T04:57:12.487Z,6.57
2018-06-14T04:59:40.871Z,5.80
2018-06-14T05:02:09.160Z,6.40
2018-06-14T05:04:41.470Z,4.67
2018-06-14T05:07:15.656Z,5.20
2018-06-14T05:09:44.114Z,8.93
2018-06-14T05:12:12.498Z,5.23
2018-06-14T05:14:40.768Z,8.03
2018-06-14T05:17:20.641Z,5.43
2018-06-14T05:19:51.134Z,8.70
2018-06-14T05:22:22.484Z,7.63
2018-06-14T05:24:50.638Z,6.83
2018-06-14T05:27:23.148Z,8.20
2018-06-14T05:29:55.578Z,8.33
2018-06-14T05:32:26.650Z,9.13
2018-06-14T05:34:58.111Z,6.40
2018-06-14T05:37:29.454Z,7.23
2018-06-14T05:40:00.720Z,7.53
2018-06-14T05:42:29.040Z,4.47
2018-06-14T05:44:57.274Z,4.00
2018-06-14T05:47:32.785Z,8.60
2018-06-14T05:50:07.546Z,6.07
2018-06-14T05:52:35.803Z,6.10
2018-06-14T05:55:12.384Z,7.77
2018-06-14T05:57:40.710Z,6.03
2018-06-14T06:00:16.089Z,6.17
2018-06-14T06:02:48.745Z,4.70
2018-06-14T06:05:18.530Z,4.10
2018-06-14T06:07:46.827Z,5.77
2018-06-14T06:10:15.017Z,4.70
2018-06-14T06:12:49.774Z,6.10
2018-06-14T06:15:18.016Z,6.33
2018-06-14T06:17:54.875Z,8.63
2018-06-14T06:20:23.475Z,6.07
2018-06-14T06:22:53.961Z,5.80
2018-06-14T06:25:24.228Z,4.40
2018-06-14T06:27:52.414Z,5.03
2018-06-14T06:30:23.422Z,5.63
2018-06-14T06:32:53.615Z,3.57
2018-06-14T06:35:21.845Z,3.60
2018-06-14T06:37:57.625Z,6.07
2018-06-14T06:40:25.828Z,3.40
2018-06-14T06:42:56.829Z,4.77
2018-06-14T06:45:36.529Z,5.83
2018-06-14T06:48:09.179Z,5.57
2018-06-14T06:50:41.833Z,4.93
2018-06-14T06:53:10.133Z,4.37
2018-06-14T06:55:48.026Z,5.00
2018-06-14T06:58:18.292Z,6.07
2018-06-14T07:00:46.471Z,4.50
2018-06-14T07:03:21.070Z,4.63
2018-06-14T07:05:49.329Z,4.40
2018-06-14T07:08:25.992Z,5.27
2018-06-14T07:10:54.267Z,5.77
2018-06-14T07:13:28.782Z,5.03
2018-06-14T07:16:04.011Z,8.37
2018-06-14T07:18:39.547Z,6.03
2018-06-14T07:21:17.243Z,5.83
2018-06-14T07:23:45.544Z,5.50
2018-06-14T07:26:23.701Z,7.00
2018-06-14T07:28:59.940Z,9.90
2018-06-14T07:31:28.163Z,8.20
2018-06-14T07:34:01.372Z,5.37
2018-06-14T07:36:41.370Z,9.23
2018-06-14T07:39:14.070Z,7.17
2018-06-14T07:41:48.577Z,6.77
2018-06-14T07:44:23.372Z,9.97
2018-06-14T07:46:51.601Z,7.30
2018-06-14T07:49:24.206Z,5.93
2018-06-14T07:51:52.566Z,7.77
2018-06-14T07:54:25.103Z,10.50
2018-06-14T07:56:53.395Z,9.40
2018-06-14T07:59:28.047Z,9.57
2018-06-14T08:01:56.338Z,8.27
2018-06-14T08:04:38.980Z,7.60
2018-06-14T08:07:07.226Z,9.47
2018-06-14T08:12:15.631Z,11.40
2018-06-14T08:14:44.001Z,9.50
2018-06-14T08:17:12.630Z,9.47
2018-06-14T08:19:42.832Z,8.50
2018-06-14T08:22:15.126Z,7.50
2018-06-14T08:24:46.018Z,9.37
2018-06-14T08:27:16.277Z,6.40
2018-06-14T08:29:44.309Z,11.63
2018-06-14T08:32:16.689Z,8.17
2018-06-14T08:34:50.998Z,10.90
2018-06-14T08:37:32.553Z,8.97
2018-06-14T08:40:02.901Z,8.53
2018-06-14T08:42:31.169Z,8.93
2018-06-14T08:44:59.606Z,9.37
2018-06-14T08:47:27.955Z,8.87
2018-06-14T08:49:56.338Z,9.37
2018-06-14T08:52:31.027Z,8.50
2018-06-14T08:54:59.235Z,13.47
2018-06-14T08:57:32.386Z,8.53
2018-06-14T09:00:10.838Z,7.40
2018-06-14T09:02:42.007Z,8.60
2018-06-14T09:05:10.471Z,7.40
2018-06-14T09:07:38.962Z,7.17
2018-06-14T09:10:07.286Z,10.53
2018-06-14T09:12:35.509Z,7.77
2018-06-14T09:15:08.881Z,8.33
2018-06-14T09:17:40.047Z,6.00
2018-06-14T09:20:10.534Z,6.07
2018-06-14T09:22:40.783Z,6.50
2018-06-14T09:25:09.122Z,8.57
2018-06-14T09:27:37.352Z,7.20
2018-06-14T09:30:17.420Z,8.47
2018-06-14T09:32:48.039Z,7.63
2018-06-14T09:35:19.380Z,6.23
2018-06-14T09:37:55.422Z,6.73
2018-06-14T09:40:23.630Z,7.53
2018-06-14T09:42:54.829Z,6.87
2018-06-14T09:45:26.113Z,8.63
2018-06-14T09:47:54.848Z,8.53
2018-06-14T09:50:26.407Z,6.77
2018-06-14T09:52:54.393Z,8.87
2018-06-14T09:55:22.650Z,8.17
2018-06-14T09:57:53.825Z,6.23
2018-06-14T10:00:25.347Z,6.47
2018-06-14T10:05:38.486Z,10.60
2018-06-14T10:08:09.379Z,6.87
2018-06-14T10:10:39.579Z,6.77
2018-06-14T10:13:07.968Z,6.57
2018-06-14T10:15:38.475Z,6.20
2018-06-14T10:18:06.774Z,5.70
2018-06-14T10:20:43.519Z,5.93
2018-06-14T10:23:11.695Z,6.17
2018-06-14T10:25:46.331Z,7.47
2018-06-14T10:28:14.703Z,4.50
2018-06-14T10:30:48.388Z,5.83
2018-06-14T10:33:16.706Z,4.93
2018-06-14T10:35:49.832Z,7.40
2018-06-14T10:38:21.082Z,8.13
2018-06-14T10:40:49.741Z,5.47
2018-06-14T10:43:21.549Z,8.03
2018-06-14T10:45:56.435Z,5.63
2018-06-14T10:48:24.855Z,6.67
2018-06-14T10:50:53.037Z,7.47
2018-06-14T10:53:21.869Z,7.33
2018-06-14T10:55:50.144Z,5.43
2018-06-14T10:58:18.363Z,6.43
2018-06-14T11:00:53.092Z,6.80
2018-06-14T11:03:21.366Z,7.13
2018-06-14T11:05:54.618Z,6.00
2018-06-14T11:08:28.785Z,4.30
2018-06-14T11:10:56.793Z,5.33
2018-06-14T11:13:31.154Z,5.53
2018-06-14T11:16:02.123Z,4.70
2018-06-14T11:18:30.532Z,5.60
2018-06-14T11:20:58.879Z,5.13
2018-06-14T11:23:31.521Z,5.07
2018-06-14T11:25:59.736Z,6.33
2018-06-14T11:28:30.803Z,7.87
2018-06-14T11:30:59.021Z,6.33
2018-06-14T11:33:27.447Z,11.03
2018-06-14T11:35:55.817Z,4.53
2018-06-14T11:38:26.842Z,4.63
2018-06-14T11:40:56.962Z,4.60
2018-06-14T11:43:24.993Z,4.27
2018-06-14T11:45:55.873Z,6.67
2018-06-14T11:48:23.982Z,6.23
2018-06-14T11:51:01.826Z,6.17
2018-06-14T11:53:30.428Z,5.67
2018-06-14T11:55:58.824Z,6.07
2018-06-14T11:58:27.204Z,4.90
2018-06-14T12:00:55.563Z,6.10
2018-06-14T12:03:35.485Z,5.97
2018-06-14T12:06:05.928Z,4.17
2018-06-14T12:08:34.329Z,6.03
2018-06-14T12:11:02.799Z,5.83
2018-06-14T12:13:31.193Z,3.97
2018-06-14T12:15:59.441Z,4.57
2018-06-14T12:18:30.767Z,6.20
2018-06-14T12:21:05.121Z,4.97
2018-06-14T12:23:36.176Z,5.10
2018-06-14T12:26:04.634Z,6.07
2018-06-14T12:28:32.938Z,4.30
2018-06-14T12:31:04.202Z,4.50
2018-06-14T12:33:38.771Z,3.57
2018-06-14T12:36:09.808Z,6.73
2018-06-14T12:38:40.149Z,4.17
2018-06-14T12:41:13.388Z,5.67
2018-06-14T12:43:41.609Z,3.53
2018-06-14T12:46:12.658Z,4.03
2018-06-14T12:48:53.554Z,3.43
2018-06-14T12:51:26.950Z,4.07
2018-06-14T12:54:01.753Z,6.80
2018-06-14T12:56:29.936Z,4.63
2018-06-14T12:59:02.406Z,3.40
2018-06-14T13:01:33.432Z,3.03
2018-06-14T13:04:04.295Z,4.40
2018-06-14T13:06:41.006Z,4.33
2018-06-14T13:09:11.525Z,3.13
2018-06-14T13:11:39.711Z,4.70
2018-06-14T13:14:22.442Z,5.17
2018-06-14T13:16:50.745Z,4.03
2018-06-14T13:19:19.048Z,5.00
2018-06-14T13:21:52.125Z,4.30
2018-06-14T13:24:23.652Z,3.80
2018-06-14T13:27:09.933Z,5.07
2018-06-14T13:29:49.471Z,3.00
2018-06-14T13:32:27.584Z,4.83
2018-06-14T13:34:55.972Z,3.53
2018-06-14T13:37:24.265Z,4.90
2018-06-14T13:39:52.639Z,3.93
2018-06-14T13:42:27.300Z,7.20
2018-06-14T13:44:55.642Z,5.10
2018-06-14T13:47:26.903Z,4.63
2018-06-14T13:50:08.973Z,4.67
2018-06-14T13:52:39.243Z,5.77
2018-06-14T13:55:07.590Z,4.73
2018-06-14T13:57:35.861Z,5.50
2018-06-14T14:00:10.447Z,3.90
2018-06-14T14:02:38.648Z,6.50
2018-06-14T14:05:09.628Z,4.90
2018-06-14T14:07:38.695Z,5.13
2018-06-14T14:10:09.842Z,4.70
2018-06-14T14:12:40.008Z,7.63
2018-06-14T14:15:08.407Z,5.90
2018-06-14T14:17:36.564Z,7.17
2018-06-14T14:20:07.572Z,7.80
2018-06-14T14:22:35.921Z,6.77
2018-06-14T14:25:04.207Z,5.83
2018-06-14T14:27:37.298Z,6.53
2018-06-14T14:30:10.796Z,5.20
2018-06-14T14:32:39.278Z,5.40
2018-06-14T14:35:10.766Z,6.80
2018-06-14T14:37:42.967Z,5.10
2018-06-14T14:40:11.376Z,8.97
2018-06-14T14:42:39.718Z,5.27
2018-06-14T14:45:07.887Z,5.00
2018-06-14T14:47:38.894Z,5.57
2018-06-14T14:50:07.342Z,4.57
2018-06-14T14:52:35.619Z,4.03
2018-06-14T14:55:04.286Z,7.40
2018-06-14T14:57:32.475Z,5.00
2018-06-14T15:00:07.859Z,6.00
2018-06-14T15:02:43.137Z,7.47
2018-06-14T15:05:11.554Z,5.43
2018-06-14T15:07:49.865Z,5.80
2018-06-14T15:10:29.927Z,5.00
2018-06-14T15:12:58.165Z,8.23
2018-06-14T15:15:28.526Z,6.40
2018-06-14T15:18:00.799Z,4.40
2018-06-14T15:20:32.099Z,8.30
2018-06-14T15:23:00.542Z,7.33
2018-06-14T15:25:28.969Z,7.53
2018-06-14T15:27:57.240Z,7.07
2018-06-14T15:30:25.498Z,20.60
2018-06-14T15:32:55.952Z,6.50
2018-06-14T15:35:30.446Z,5.93
2018-06-14T15:37:59.358Z,5.07
2018-06-14T15:40:27.560Z,9.10
2018-06-14T15:43:07.535Z,10.23
2018-06-14T15:45:39.135Z,7.67
2018-06-14T15:48:10.163Z,8.90
2018-06-14T15:50:38.482Z,7.00
2018-06-14T15:53:06.939Z,6.90
2018-06-14T15:56:10.366Z,7.60
2018-06-14T15:58:38.571Z,7.23
2018-06-14T16:01:20.264Z,10.90
2018-06-14T16:03:48.487Z,8.50
2018-06-14T16:06:19.241Z,7.87
2018-06-14T16:08:47.591Z,7.27
2018-06-14T16:11:15.871Z,7.60
2018-06-14T16:13:49.245Z,10.90
2018-06-14T16:16:17.412Z,8.30
2018-06-14T16:18:47.615Z,6.87
2018-06-14T16:21:15.947Z,11.27
2018-06-14T16:23:44.319Z,7.33
2018-06-14T16:26:19.072Z,6.83
2018-06-14T16:28:47.522Z,9.03
2018-06-14T16:31:15.849Z,10.67
2018-06-14T16:33:46.213Z,10.93
2018-06-14T16:36:19.668Z,11.00
2018-06-14T16:41:30.523Z,9.47
2018-06-14T16:44:03.644Z,12.97
2018-06-14T16:46:34.207Z,9.50
2018-06-14T16:49:16.309Z,11.00
2018-06-14T16:51:44.738Z,11.63
2018-06-14T16:54:26.945Z,15.30
2018-06-14T16:56:55.295Z,14.03
2018-06-14T16:59:27.723Z,13.17
2018-06-14T17:01:58.778Z,12.10
2018-06-14T17:04:32.155Z,11.83
2018-06-14T17:07:12.589Z,12.23
2018-06-14T17:09:43.163Z,13.33
2018-06-14T17:12:25.302Z,16.20
2018-06-14T17:14:55.959Z,15.83
2018-06-14T17:17:27.363Z,14.80
2018-06-14T17:19:58.581Z,15.30
2018-06-14T17:22:26.825Z,14.20
2018-06-14T17:25:08.277Z,14.87
2018-06-14T17:27:36.577Z,14.37
2018-06-14T17:30:10.863Z,12.60
2018-06-14T17:32:41.843Z,13.13
2018-06-14T17:35:10.091Z,15.13
2018-06-14T17:37:42.659Z,14.33
2018-06-14T17:40:10.935Z,13.97
2018-06-14T17:42:45.563Z,14.70
2018-06-14T17:45:13.861Z,14.80
2018-06-14T17:47:50.867Z,15.30
2018-06-14T17:50:21.375Z,14.50
2018-06-14T17:52:59.454Z,14.57
2018-06-14T17:55:27.743Z,15.33
2018-06-14T17:57:58.765Z,17.57
2018-06-14T18:00:29.382Z,14.80
2018-06-14T18:03:01.750Z,14.03
2018-06-14T18:05:43.205Z,13.53
2018-06-14T18:08:14.611Z,16.37
2018-06-14T18:10:46.194Z,14.27
2018-06-14T18:13:18.635Z,15.20
2018-06-14T18:15:51.752Z,14.43
2018-06-14T18:18:20.094Z,13.43
2018-06-14T18:20:48.344Z,14.57
2018-06-14T18:23:19.531Z,14.00
2018-06-14T18:25:50.957Z,16.97
2018-06-14T18:28:31.773Z,14.97
2018-06-14T18:31:02.770Z,16.10
2018-06-14T18:33:31.111Z,15.70
2018-06-14T18:35:59.539Z,13.90
2018-06-14T18:38:28.378Z,14.47
2018-06-14T18:41:00.902Z,15.83
2018-06-14T18:43:35.671Z,15.83
2018-06-14T18:46:03.892Z,14.43
2018-06-14T18:48:37.168Z,15.77
2018-06-14T18:51:08.751Z,15.23
2018-06-14T18:53:43.326Z,16.20
2018-06-14T18:56:21.080Z,14.13
2018-06-14T18:58:49.465Z,13.23
2018-06-14T19:01:17.856Z,13.00
2018-06-14T19:03:51.428Z,15.57
2018-06-14T19:06:19.897Z,14.07
2018-06-14T19:08:48.109Z,15.73
2018-06-14T19:11:22.914Z,13.20
2018-06-14T19:13:51.203Z,18.60
2018-06-14T19:16:25.918Z,12.67
2018-06-14T19:18:54.412Z,14.47
2018-06-14T19:21:22.754Z,11.83
2018-06-14T19:23:53.796Z,16.03
2018-06-14T19:26:27.141Z,15.93
2018-06-14T19:28:55.475Z,12.47
2018-06-14T19:31:23.653Z,11.50
2018-06-14T19:33:59.350Z,14.53
2018-06-14T19:36:29.756Z,13.70
2018-06-14T19:38:58.081Z,12.13
2018-06-14T19:41:29.157Z,12.93
2018-06-14T19:44:02.057Z,12.43
2018-06-14T19:46:30.300Z,13.27
2018-06-14T19:49:02.899Z,13.70
2018-06-14T19:51:33.741Z,14.57
2018-06-14T19:54:02.124Z,13.57
2018-06-14T19:56:30.487Z,11.80
2018-06-14T19:58:58.825Z,13.90
2018-06-14T20:01:29.998Z,16.57
2018-06-14T20:03:58.056Z,13.20
2018-06-14T20:06:26.387Z,15.60
2018-06-14T20:09:06.364Z,11.33
2018-06-14T20:11:36.732Z,12.27
2018-06-14T20:14:07.306Z,14.30
2018-06-14T20:19:20.935Z,12.97
2018-06-14T20:21:49.363Z,16.63
2018-06-14T20:24:17.551Z,15.43
2018-06-14T20:26:47.592Z,14.00
2018-06-14T20:29:24.947Z,15.03
2018-06-14T20:31:55.201Z,14.50
2018-06-14T20:34:23.462Z,17.57
2018-06-14T20:37:01.203Z,14.83
2018-06-14T20:39:29.420Z,17.37
2018-06-14T20:42:02.834Z,13.93
2018-06-14T20:44:39.616Z,14.77
2018-06-14T20:47:07.812Z,15.17
2018-06-14T20:49:40.404Z,14.80
2018-06-14T20:52:08.614Z,16.10
2018-06-14T20:54:43.398Z,15.77
2018-06-14T20:57:11.642Z,15.63
2018-06-14T20:59:42.692Z,14.07
2018-06-14T21:02:15.324Z,16.07
2018-06-14T21:04:46.506Z,13.03
2018-06-14T21:07:16.716Z,14.50
2018-06-14T21:09:44.907Z,14.30
2018-06-14T21:12:18.156Z,13.90
2018-06-14T21:14:49.122Z,17.13
2018-06-14T21:17:17.406Z,14.13
2018-06-14T21:19:50.631Z,14.23
2018-06-14T21:22:25.259Z,17.20
2018-06-14T21:25:02.817Z,14.53
2018-06-14T21:27:36.157Z,14.23
2018-06-14T21:30:13.573Z,14.93
2018-06-14T21:32:48.226Z,14.83
2018-06-14T21:35:16.834Z,18.40
2018-06-14T21:37:45.074Z,18.47
2018-06-14T21:40:16.142Z,18.07
2018-06-14T21:42:47.569Z,17.70
2018-06-14T21:45:20.881Z,15.50
2018-06-14T21:47:52.066Z,16.87
2018-06-14T21:50:20.327Z,15.70
2018-06-14T21:52:54.379Z,18.67
2018-06-14T21:55:25.579Z,20.03
2018-06-14T21:57:53.924Z,18.80
2018-06-14T22:00:23.600Z,17.37
2018-06-14T22:02:57.321Z,20.40
2018-06-14T22:05:27.442Z,20.20
2018-06-14T22:07:55.746Z,21.00
2018-06-14T22:10:29.011Z,23.33
2018-06-14T22:13:03.553Z,20.60
2018-06-14T22:15:36.657Z,20.63
2018-06-14T22:18:16.806Z,23.83
2018-06-14T22:20:45.176Z,20.77
2018-06-14T22:23:13.461Z,21.73
2018-06-14T22:25:50.392Z,21.17
2018-06-14T22:28:21.586Z,22.10
2018-06-14T22:30:49.833Z,18.97
2018-06-14T22:33:31.775Z,19.27
2018-06-14T22:35:59.994Z,23.30
2018-06-14T22:38:28.385Z,23.03
2018-06-14T22:40:56.585Z,21.70
2018-06-14T22:43:27.798Z,24.27
2018-06-14T22:45:59.186Z,27.77
2018-06-14T22:48:29.462Z,25.80
2018-06-14T22:51:10.940Z,27.43
2018-06-14T22:53:39.238Z,28.47
2018-06-14T22:56:07.536Z,29.03
2018-06-14T22:58:38.553Z,28.50
2018-06-14T23:01:45.050Z,30.53
2018-06-14T23:04:20.362Z,31.60
2018-06-14T23:06:54.930Z,28.57
2018-06-14T23:10:39.034Z,30.70
2018-06-14T23:13:11.197Z,29.23
2018-06-14T23:15:43.460Z,31.10
2018-06-14T23:18:16.193Z,29.83
2018-06-14T23:20:47.506Z,30.30
2018-06-14T23:23:22.084Z,31.20
2018-06-14T23:25:53.181Z,35.70
2018-06-14T23:28:24.683Z,32.17
2018-06-14T23:30:56.923Z,33.30
2018-06-14T23:33:27.227Z,37.40
2018-06-14T23:36:04.755Z,34.20
2018-06-14T23:38:33.167Z,29.87
2018-06-14T23:41:01.383Z,37.93
2018-06-14T23:43:34.550Z,36.60
2018-06-14T23:46:05.637Z,34.07
2018-06-14T23:48:33.979Z,34.93
2018-06-14T23:51:02.234Z,30.33
2018-06-14T23:53:36.983Z,35.33
2018-06-14T23:56:05.248Z,32.83
2018-06-14T23:58:43.914Z,32.23
